N4312R KISP-KBDR
Flight info
| Callsign | N4312R |
|---|---|
| Flight time | 0h 11m |
| Altitude | VFR/014 |
| Route | |
| Aircraft | SR22/L-DOV/C |
Departure
| Time | 2026-04-28 17:16 |
|---|---|
| Airport | Long Island MacArthur Airport (KISP) |
Arrival
| Time | 2026-04-28 17:27 |
|---|---|
| Airport | Igor I Sikorsky Memorial Airport (KBDR) |
| Time | Latitude | Longitude | Altitude | Speed | Heading |
|---|---|---|---|---|---|
| 2026-04-28 17:12 | 40.79820 | -73.10811 | 99 ft | 0 kts | 0° |
| 2026-04-28 17:13 | 40.79821 | -73.10811 | 99 ft | 1 kts | 3° |
| 2026-04-28 17:13 | 40.79829 | -73.10805 | 99 ft | 0 kts | 54° |
| 2026-04-28 17:13 | 40.79829 | -73.10804 | 99 ft | 0 kts | 54° |
| 2026-04-28 17:14 | 40.79806 | -73.10765 | 99 ft | 11 kts | 119° |
| 2026-04-28 17:14 | 40.79876 | -73.10723 | 100 ft | 16 kts | 356° |
| 2026-04-28 17:14 | 40.79999 | -73.10720 | 101 ft | 20 kts | 35° |
| 2026-04-28 17:14 | 40.79944 | -73.10574 | 100 ft | 22 kts | 137° |
| 2026-04-28 17:15 | 40.79833 | -73.10429 | 99 ft | 23 kts | 132° |
| 2026-04-28 17:15 | 40.79746 | -73.10315 | 98 ft | 17 kts | 135° |
| 2026-04-28 17:15 | 40.79641 | -73.10229 | 97 ft | 20 kts | 205° |
| 2026-04-28 17:15 | 40.79581 | -73.10303 | 98 ft | 36 kts | 224° |
| 2026-04-28 17:16 | 40.79247 | -73.10742 | 108 ft | 93 kts | 224° |
| 2026-04-28 17:16 | 40.78732 | -73.11368 | 269 ft | 104 kts | 220° |
| 2026-04-28 17:16 | 40.78151 | -73.11981 | 519 ft | 115 kts | 214° |
| 2026-04-28 17:16 | 40.77521 | -73.12627 | 893 ft | 113 kts | 224° |
| 2026-04-28 17:17 | 40.77202 | -73.13558 | 1179 ft | 122 kts | 263° |
| 2026-04-28 17:17 | 40.77448 | -73.14721 | 1189 ft | 147 kts | 307° |
| 2026-04-28 17:17 | 40.78365 | -73.15352 | 1189 ft | 157 kts | 354° |
| 2026-04-28 17:17 | 40.79451 | -73.15222 | 1190 ft | 157 kts | 7° |
| 2026-04-28 17:18 | 40.80510 | -73.15047 | 1189 ft | 150 kts | 5° |
| 2026-04-28 17:18 | 40.81530 | -73.14941 | 1190 ft | 150 kts | 2° |
| 2026-04-28 17:18 | 40.82578 | -73.14866 | 1190 ft | 152 kts | 2° |
| 2026-04-28 17:18 | 40.83639 | -73.14793 | 1186 ft | 155 kts | 2° |
| 2026-04-28 17:19 | 40.84724 | -73.14715 | 1187 ft | 157 kts | 2° |
| 2026-04-28 17:19 | 40.85814 | -73.14643 | 1184 ft | 158 kts | 2° |
| 2026-04-28 17:19 | 40.86915 | -73.14570 | 1183 ft | 159 kts | 1° |
| 2026-04-28 17:19 | 40.88015 | -73.14499 | 1184 ft | 158 kts | 2° |
| 2026-04-28 17:20 | 40.89110 | -73.14427 | 1184 ft | 157 kts | 2° |
| 2026-04-28 17:20 | 40.89838 | -73.14378 | 1189 ft | 160 kts | 1° |
| 2026-04-28 17:20 | 40.91307 | -73.14281 | 1304 ft | 151 kts | 2° |
| 2026-04-28 17:20 | 40.92327 | -73.14217 | 1541 ft | 144 kts | 1° |
| 2026-04-28 17:21 | 40.93303 | -73.14156 | 1774 ft | 141 kts | 1° |
| 2026-04-28 17:21 | 40.94271 | -73.14093 | 2013 ft | 138 kts | 1° |
| 2026-04-28 17:21 | 40.95253 | -73.14024 | 2176 ft | 146 kts | 1° |
| 2026-04-28 17:22 | 40.97422 | -73.13877 | 2190 ft | 164 kts | 2° |
| 2026-04-28 17:22 | 40.98572 | -73.13799 | 2189 ft | 167 kts | 2° |
| 2026-04-28 17:22 | 40.99735 | -73.13723 | 2190 ft | 168 kts | 2° |
| 2026-04-28 17:23 | 41.02061 | -73.13569 | 2189 ft | 169 kts | 2° |
| 2026-04-28 17:23 | 41.03236 | -73.13490 | 2188 ft | 169 kts | 2° |
| 2026-04-28 17:23 | 41.04415 | -73.13412 | 2189 ft | 169 kts | 2° |
| 2026-04-28 17:23 | 41.05580 | -73.13333 | 2188 ft | 164 kts | 2° |
| 2026-04-28 17:24 | 41.06694 | -73.13253 | 2142 ft | 158 kts | 2° |
| 2026-04-28 17:24 | 41.07790 | -73.13179 | 1990 ft | 157 kts | 2° |
| 2026-04-28 17:24 | 41.08887 | -73.13117 | 1724 ft | 161 kts | 2° |
| 2026-04-28 17:24 | 41.10004 | -73.13033 | 1412 ft | 164 kts | 3° |
| 2026-04-28 17:25 | 41.11127 | -73.12971 | 1141 ft | 161 kts | 1° |
| 2026-04-28 17:25 | 41.13296 | -73.12851 | 647 ft | 148 kts | 12° |
| 2026-04-28 17:25 | 41.14130 | -73.12262 | 570 ft | 130 kts | 37° |
| 2026-04-28 17:26 | 41.14826 | -73.11551 | 419 ft | 122 kts | 40° |
| 2026-04-28 17:26 | 41.15440 | -73.10850 | 370 ft | 117 kts | 45° |
| 2026-04-28 17:26 | 41.16058 | -73.10249 | 383 ft | 103 kts | 13° |
| 2026-04-28 17:26 | 41.16645 | -73.10439 | 331 ft | 84 kts | 315° |
| 2026-04-28 17:27 | 41.16866 | -73.11089 | 213 ft | 76 kts | 276° |
| 2026-04-28 17:27 | 41.16763 | -73.11746 | 103 ft | 74 kts | 231° |
| 2026-04-28 17:27 | 41.16416 | -73.12249 | 20 ft | 71 kts | 224° |
| 2026-04-28 17:27 | 41.16148 | -73.12630 | 12 ft | 27 kts | 250° |
| 2026-04-28 17:28 | 41.16214 | -73.12747 | 13 ft | 12 kts | 316° |
| 2026-04-28 17:28 | 41.16268 | -73.12740 | 14 ft | 0 kts | 44° |